createdAt,value
2023-03-20T00:02:27.119Z,97308.47
2023-03-20T00:07:29.156Z,97320.66
2023-03-20T00:12:31.453Z,97322.94
2023-03-20T00:17:33.486Z,97315.88
2023-03-20T00:22:35.133Z,97318.94
2023-03-20T00:27:37.059Z,97316.47
2023-03-20T00:32:38.726Z,97314.16
2023-03-20T00:37:40.457Z,97319.75
2023-03-20T00:42:44.940Z,97324.81
2023-03-20T00:47:51.465Z,97325.38
2023-03-20T00:52:53.802Z,97313.34
2023-03-20T00:57:56.987Z,97314.91
2023-03-20T01:02:59.044Z,97318.09
2023-03-20T01:08:01.223Z,97312.72
2023-03-20T01:13:03.767Z,97315.44
2023-03-20T01:18:06.136Z,97315.56
2023-03-20T01:23:08.117Z,97318.75
2023-03-20T01:28:18.518Z,97310.09
2023-03-20T01:33:23.247Z,97304.31
2023-03-20T01:38:29.230Z,97313.81
2023-03-20T01:43:34.058Z,97314.50
2023-03-20T01:48:57.986Z,97314.00
2023-03-20T01:54:10.777Z,97310.25
2023-03-20T01:59:51.190Z,97299.44
2023-03-20T02:04:58.168Z,97314.78
2023-03-20T02:10:00.996Z,97302.19
2023-03-20T02:15:17.181Z,97304.97
2023-03-20T02:20:44.619Z,97306.16
2023-03-20T02:26:08.351Z,97311.16
2023-03-20T02:31:22.883Z,97314.16
2023-03-20T02:36:46.617Z,97315.63
2023-03-20T02:42:03.680Z,97323.88
2023-03-20T02:47:13.372Z,97313.81
2023-03-20T02:52:22.591Z,97328.25
2023-03-20T02:57:42.852Z,97322.84
2023-03-20T03:02:59.922Z,97326.69
2023-03-20T03:08:04.734Z,97334.88
2023-03-20T03:13:15.780Z,97339.19
2023-03-20T03:18:24.843Z,97341.66
2023-03-20T03:23:35.420Z,97338.91
2023-03-20T03:28:46.039Z,97342.47
2023-03-20T03:33:55.513Z,97352.34
2023-03-20T03:39:06.302Z,97350.13
2023-03-20T03:44:18.176Z,97346.34
2023-03-20T03:49:28.931Z,97347.16
2023-03-20T03:54:43.449Z,97357.03
2023-03-20T04:00:27.275Z,97358.91
2023-03-20T04:05:31.763Z,97362.75
2023-03-20T04:10:33.838Z,97355.19
2023-03-20T04:15:35.807Z,97367.75
2023-03-20T04:20:39.217Z,97369.63
2023-03-20T04:25:41.264Z,97374.34
2023-03-20T04:30:44.260Z,97383.75
2023-03-20T04:35:52.742Z,97397.75
2023-03-20T04:40:55.293Z,97386.78
2023-03-20T04:45:57.819Z,97388.75
2023-03-20T04:50:59.884Z,97391.16
2023-03-20T04:56:14.373Z,97388.75
2023-03-20T05:01:16.628Z,97387.91
2023-03-20T05:06:18.589Z,97385.75
2023-03-20T05:11:20.958Z,97394.94
2023-03-20T05:16:47.334Z,97400.22
2023-03-20T05:22:11.130Z,97398.53
2023-03-20T05:27:31.389Z,97409.53
2023-03-20T05:32:56.819Z,97412.06
2023-03-20T05:38:01.440Z,97415.44
2023-03-20T05:43:16.916Z,97420.13
2023-03-20T05:48:38.981Z,97428.34
2023-03-20T05:54:03.425Z,97434.91
2023-03-20T05:59:31.304Z,97434.59
2023-03-20T06:05:05.929Z,97439.19
2023-03-20T06:10:17.277Z,97445.19
2023-03-20T06:15:19.807Z,97447.31
2023-03-20T06:20:28.971Z,97449.84
2023-03-20T06:25:30.926Z,97451.31
2023-03-20T06:30:33.485Z,97455.44
2023-03-20T06:35:36.382Z,97445.06
2023-03-20T06:40:38.787Z,97459.25
2023-03-20T06:45:41.000Z,97464.91
2023-03-20T06:50:53.053Z,97462.09
2023-03-20T06:55:57.343Z,97467.56
2023-03-20T07:00:59.430Z,97472.78
2023-03-20T07:06:01.795Z,97478.16
2023-03-20T07:11:05.202Z,97484.84
2023-03-20T07:16:08.241Z,97487.41
2023-03-20T07:21:19.857Z,97487.16
2023-03-20T07:26:22.125Z,97496.78
2023-03-20T07:31:26.848Z,97493.19
2023-03-20T07:36:38.005Z,97498.16
2023-03-20T07:41:40.159Z,97499.38
2023-03-20T07:46:45.970Z,97499.47
2023-03-20T07:51:49.265Z,97512.69
2023-03-20T07:56:51.551Z,97496.63
2023-03-20T08:01:53.257Z,97511.97
2023-03-20T08:06:55.043Z,97508.50
2023-03-20T08:11:56.749Z,97494.56
2023-03-20T08:17:12.828Z,97484.91
2023-03-20T08:22:16.614Z,97478.31
2023-03-20T08:27:18.366Z,97487.16
2023-03-20T08:32:20.094Z,97480.94
2023-03-20T08:37:22.228Z,97483.25
2023-03-20T08:42:23.946Z,97489.66
2023-03-20T08:47:27.020Z,97481.28
2023-03-20T08:52:28.792Z,97484.09
2023-03-20T08:57:30.853Z,97501.34
2023-03-20T09:02:33.312Z,97485.16
2023-03-20T09:07:35.592Z,97499.38
2023-03-20T09:12:37.788Z,97504.91
2023-03-20T09:17:39.676Z,97509.00
2023-03-20T09:22:42.413Z,97508.44
2023-03-20T09:27:44.181Z,97502.19
2023-03-20T09:32:46.178Z,97497.81
2023-03-20T09:37:48.358Z,97499.44
2023-03-20T09:42:59.300Z,97506.91
2023-03-20T09:48:09.618Z,97498.66
2023-03-20T09:53:20.473Z,97495.41
2023-03-20T09:58:30.140Z,97499.81
2023-03-20T10:03:58.373Z,97495.97
2023-03-20T10:09:00.278Z,97494.94
2023-03-20T10:14:24.299Z,97485.63
2023-03-20T10:19:36.674Z,97487.78
2023-03-20T10:24:52.233Z,97482.91
2023-03-20T10:30:03.566Z,97479.00
2023-03-20T10:35:34.648Z,97485.03
2023-03-20T10:40:41.543Z,97473.94
2023-03-20T10:45:48.319Z,97485.28
2023-03-20T10:50:53.845Z,97474.31
2023-03-20T10:55:59.463Z,97466.91
2023-03-20T11:01:02.946Z,97466.09
2023-03-20T11:06:28.308Z,97451.41
2023-03-20T11:11:34.314Z,97464.66
2023-03-20T11:16:40.731Z,97452.63
2023-03-20T11:21:51.788Z,97457.03
2023-03-20T11:26:55.482Z,97451.56
2023-03-20T11:32:06.730Z,97461.44
2023-03-20T11:37:22.835Z,97455.91
2023-03-20T11:42:28.409Z,97458.13
2023-03-20T11:47:34.036Z,97459.75
2023-03-20T11:52:38.968Z,97452.63
2023-03-20T11:57:42.468Z,97445.78
2023-03-20T12:02:44.865Z,97444.69
2023-03-20T12:07:49.778Z,97446.88
2023-03-20T12:12:59.146Z,97442.72
2023-03-20T12:18:15.654Z,97440.25
2023-03-20T12:23:29.890Z,97438.91
2023-03-20T12:28:47.694Z,97436.69
2023-03-20T12:34:01.338Z,97439.44
2023-03-20T12:39:06.615Z,97435.25
2023-03-20T12:44:21.789Z,97422.84
2023-03-20T12:49:33.641Z,97424.69
2023-03-20T12:55:00.221Z,97416.16
2023-03-20T13:00:17.235Z,97419.41
2023-03-20T13:05:56.827Z,97416.69
2023-03-20T13:11:12.934Z,97414.66
2023-03-20T13:16:41.627Z,97406.47
2023-03-20T13:21:55.367Z,97401.72
2023-03-20T13:27:21.158Z,97402.72
2023-03-20T13:32:33.839Z,97401.72
2023-03-20T13:37:41.101Z,97394.56
2023-03-20T13:42:52.231Z,97395.75
2023-03-20T13:47:55.534Z,97393.50
2023-03-20T13:53:24.359Z,97379.72
2023-03-20T13:59:07.487Z,97379.06
2023-03-20T14:04:16.109Z,97371.28
2023-03-20T14:09:30.501Z,97369.84
2023-03-20T14:14:51.920Z,97368.75
2023-03-20T14:19:55.178Z,97368.81
2023-03-20T14:25:06.677Z,97372.94
2023-03-20T14:30:29.916Z,97377.34
2023-03-20T14:35:37.098Z,97374.25
2023-03-20T14:40:57.129Z,97370.00
2023-03-20T14:46:15.775Z,97363.94
2023-03-20T14:51:37.600Z,97368.63
2023-03-20T14:56:39.816Z,97365.91
2023-03-20T15:01:48.054Z,97358.41
2023-03-20T15:07:14.041Z,97362.25
2023-03-20T15:12:22.521Z,97360.72
2023-03-20T15:17:41.422Z,97355.84
2023-03-20T15:23:01.312Z,97350.03
2023-03-20T15:28:08.236Z,97340.97
2023-03-20T15:33:41.741Z,97334.78
2023-03-20T15:38:44.551Z,97331.00
2023-03-20T15:43:49.486Z,97333.66
2023-03-20T15:48:51.293Z,97326.88
2023-03-20T15:53:53.110Z,97327.38
2023-03-20T15:58:56.731Z,97327.56
2023-03-20T16:03:59.809Z,97314.94
2023-03-20T16:09:07.949Z,97325.03
2023-03-20T16:14:14.899Z,97329.34
2023-03-20T16:19:17.752Z,97336.25
2023-03-20T16:24:25.954Z,97334.66
2023-03-20T16:29:29.164Z,97335.81
2023-03-20T16:34:34.565Z,97343.25
2023-03-20T16:39:36.230Z,97337.50
2023-03-20T16:44:40.291Z,97334.81
2023-03-20T16:49:54.203Z,97340.88
2023-03-20T16:55:00.580Z,97346.97
2023-03-20T17:00:27.856Z,97344.25
2023-03-20T17:05:42.498Z,97345.34
2023-03-20T17:10:56.157Z,97350.88
2023-03-20T17:15:59.177Z,97349.25
2023-03-20T17:21:00.828Z,97346.25
2023-03-20T17:26:02.513Z,97358.34
2023-03-20T17:31:05.438Z,97358.13
2023-03-20T17:36:17.127Z,97363.06
2023-03-20T17:41:20.710Z,97360.34
2023-03-20T17:46:26.592Z,97359.28
2023-03-20T17:51:29.038Z,97359.03
2023-03-20T17:56:32.634Z,97363.69
2023-03-20T18:01:34.351Z,97363.94
2023-03-20T18:06:36.967Z,97371.91
2023-03-20T18:11:38.717Z,97367.78
2023-03-20T18:16:40.417Z,97377.38
2023-03-20T18:21:42.093Z,97382.28
2023-03-20T18:26:45.824Z,97381.69
2023-03-20T18:31:49.135Z,97379.13
2023-03-20T18:36:51.787Z,97376.25
2023-03-20T18:41:53.633Z,97377.25
2023-03-20T18:46:55.325Z,97390.06
2023-03-20T18:51:57.068Z,97388.59
2023-03-20T18:57:00.726Z,97395.38
2023-03-20T19:02:02.468Z,97391.53
2023-03-20T19:07:04.133Z,97393.41
2023-03-20T19:12:06.291Z,97391.63
2023-03-20T19:17:10.958Z,97396.00
2023-03-20T19:22:26.589Z,97400.03
2023-03-20T19:27:30.721Z,97402.16
2023-03-20T19:32:32.541Z,97409.00
2023-03-20T19:37:34.171Z,97402.59
2023-03-20T19:42:59.837Z,97407.16
2023-03-20T19:47:59.008Z,97409.47
2023-03-20T19:53:11.528Z,97405.22
2023-03-20T19:58:14.138Z,97404.28
2023-03-20T20:03:19.189Z,97399.63
2023-03-20T20:08:39.457Z,97402.31
2023-03-20T20:14:04.270Z,97399.13
2023-03-20T20:19:05.819Z,97395.44
2023-03-20T20:24:07.729Z,97400.91
2023-03-20T20:29:09.750Z,97401.72
2023-03-20T20:39:33.371Z,97403.25
2023-03-20T20:44:35.275Z,97405.53
2023-03-20T20:49:37.045Z,97401.69
2023-03-20T20:54:41.912Z,97406.03
2023-03-20T20:59:43.606Z,97401.94
2023-03-20T21:04:45.396Z,97406.72
2023-03-20T21:09:47.678Z,97412.41
2023-03-20T21:14:50.734Z,97392.44
2023-03-20T21:19:52.515Z,97402.84
2023-03-20T21:25:11.034Z,97406.47
2023-03-20T21:30:15.718Z,97403.34
2023-03-20T21:35:17.464Z,97405.00
2023-03-20T21:40:19.451Z,97395.16
2023-03-20T21:51:28.537Z,97411.59
2023-03-20T21:56:45.667Z,97408.13
2023-03-20T22:07:35.952Z,97402.19
2023-03-20T22:12:55.968Z,97415.00
2023-03-20T22:18:12.206Z,97404.66
2023-03-20T22:29:20.805Z,97407.94
2023-03-20T22:34:25.866Z,97413.91
2023-03-20T22:49:45.524Z,97406.91
2023-03-20T22:54:47.207Z,97407.66
2023-03-20T22:59:49.046Z,97403.34
2023-03-20T23:04:52.429Z,97395.56
2023-03-20T23:09:54.405Z,97394.75
2023-03-20T23:14:56.086Z,97392.25
2023-03-20T23:20:10.414Z,97399.75
2023-03-20T23:25:23.572Z,97392.56
2023-03-20T23:30:37.978Z,97389.28
2023-03-20T23:35:46.326Z,97385.56
2023-03-20T23:40:50.263Z,97371.09
2023-03-20T23:45:51.955Z,97380.19
2023-03-20T23:50:53.924Z,97370.44
2023-03-20T23:55:57.122Z,97360.28
